sensor_id;sensor_type;location;lat;lon;timestamp;P1;durP1;ratioP1;P2;durP2;ratioP2
58659;SDS011;44429;45.110;20.622;2023-05-08T00:00:23;12.32;;;8.60;;
58659;SDS011;44429;45.110;20.622;2023-05-08T00:02:49;11.35;;;7.85;;
58659;SDS011;44429;45.110;20.622;2023-05-08T00:05:15;11.98;;;8.30;;
58659;SDS011;44429;45.110;20.622;2023-05-08T00:07:41;13.38;;;8.35;;
58659;SDS011;44429;45.110;20.622;2023-05-08T00:10:08;13.20;;;8.50;;
58659;SDS011;44429;45.110;20.622;2023-05-08T00:12:34;12.10;;;8.65;;
58659;SDS011;44429;45.110;20.622;2023-05-08T00:15:00;12.05;;;8.73;;
58659;SDS011;44429;45.110;20.622;2023-05-08T00:17:27;12.38;;;8.68;;
58659;SDS011;44429;45.110;20.622;2023-05-08T00:19:53;12.88;;;8.32;;
58659;SDS011;44429;45.110;20.622;2023-05-08T00:22:19;11.63;;;8.55;;
58659;SDS011;44429;45.110;20.622;2023-05-08T00:24:45;15.40;;;8.80;;
58659;SDS011;44429;45.110;20.622;2023-05-08T00:27:11;13.15;;;9.75;;
58659;SDS011;44429;45.110;20.622;2023-05-08T00:29:38;14.80;;;8.82;;
58659;SDS011;44429;45.110;20.622;2023-05-08T00:32:07;11.77;;;8.40;;
58659;SDS011;44429;45.110;20.622;2023-05-08T00:34:33;12.90;;;8.30;;
58659;SDS011;44429;45.110;20.622;2023-05-08T00:37:01;13.63;;;8.73;;
58659;SDS011;44429;45.110;20.622;2023-05-08T00:39:27;11.07;;;8.55;;
58659;SDS011;44429;45.110;20.622;2023-05-08T00:41:53;12.68;;;8.15;;
58659;SDS011;44429;45.110;20.622;2023-05-08T00:44:19;12.27;;;8.35;;
58659;SDS011;44429;45.110;20.622;2023-05-08T00:46:46;15.52;;;8.68;;
58659;SDS011;44429;45.110;20.622;2023-05-08T00:49:12;13.40;;;8.85;;
58659;SDS011;44429;45.110;20.622;2023-05-08T00:51:39;13.35;;;8.38;;
58659;SDS011;44429;45.110;20.622;2023-05-08T00:54:07;12.77;;;8.60;;
58659;SDS011;44429;45.110;20.622;2023-05-08T00:56:34;12.70;;;8.45;;
58659;SDS011;44429;45.110;20.622;2023-05-08T00:59:00;13.95;;;8.77;;
58659;SDS011;44429;45.110;20.622;2023-05-08T01:01:27;13.82;;;8.73;;
58659;SDS011;44429;45.110;20.622;2023-05-08T01:03:54;13.02;;;8.32;;
58659;SDS011;44429;45.110;20.622;2023-05-08T01:06:20;13.88;;;8.30;;
58659;SDS011;44429;45.110;20.622;2023-05-08T01:08:46;13.20;;;8.90;;
58659;SDS011;44429;45.110;20.622;2023-05-08T01:11:16;13.68;;;8.63;;
58659;SDS011;44429;45.110;20.622;2023-05-08T01:21:48;13.52;;;9.50;;
58659;SDS011;44429;45.110;20.622;2023-05-08T01:29:56;13.65;;;9.77;;
58659;SDS011;44429;45.110;20.622;2023-05-08T01:32:28;19.45;;;10.32;;
58659;SDS011;44429;45.110;20.622;2023-05-08T01:34:56;13.27;;;9.50;;
58659;SDS011;44429;45.110;20.622;2023-05-08T01:37:28;12.32;;;9.38;;
58659;SDS011;44429;45.110;20.622;2023-05-08T01:43:23;13.98;;;9.52;;
58659;SDS011;44429;45.110;20.622;2023-05-08T01:45:33;18.23;;;11.40;;
58659;SDS011;44429;45.110;20.622;2023-05-08T01:48:09;16.73;;;11.63;;
58659;SDS011;44429;45.110;20.622;2023-05-08T01:50:37;13.73;;;10.98;;
58659;SDS011;44429;45.110;20.622;2023-05-08T01:53:09;19.73;;;11.65;;
58659;SDS011;44429;45.110;20.622;2023-05-08T01:55:39;15.07;;;10.70;;
58659;SDS011;44429;45.110;20.622;2023-05-08T01:58:07;15.70;;;11.48;;
58659;SDS011;44429;45.110;20.622;2023-05-08T02:00:34;12.60;;;10.30;;
58659;SDS011;44429;45.110;20.622;2023-05-08T02:03:03;13.25;;;10.02;;
58659;SDS011;44429;45.110;20.622;2023-05-08T02:05:30;15.93;;;11.10;;
58659;SDS011;44429;45.110;20.622;2023-05-08T02:07:57;18.58;;;11.25;;
58659;SDS011;44429;45.110;20.622;2023-05-08T02:10:24;12.50;;;9.32;;
58659;SDS011;44429;45.110;20.622;2023-05-08T02:12:51;13.70;;;8.80;;
58659;SDS011;44429;45.110;20.622;2023-05-08T02:15:18;12.52;;;9.15;;
58659;SDS011;44429;45.110;20.622;2023-05-08T02:17:45;13.38;;;8.32;;
58659;SDS011;44429;45.110;20.622;2023-05-08T02:20:13;14.48;;;7.80;;
58659;SDS011;44429;45.110;20.622;2023-05-08T02:22:44;11.90;;;8.15;;
58659;SDS011;44429;45.110;20.622;2023-05-08T02:25:11;13.77;;;8.07;;
58659;SDS011;44429;45.110;20.622;2023-05-08T02:27:39;12.98;;;8.30;;
58659;SDS011;44429;45.110;20.622;2023-05-08T02:30:09;14.00;;;8.27;;
58659;SDS011;44429;45.110;20.622;2023-05-08T02:32:36;12.93;;;8.70;;
58659;SDS011;44429;45.110;20.622;2023-05-08T02:35:02;11.00;;;7.47;;
58659;SDS011;44429;45.110;20.622;2023-05-08T02:37:29;14.05;;;8.32;;
58659;SDS011;44429;45.110;20.622;2023-05-08T02:39:55;13.63;;;7.25;;
58659;SDS011;44429;45.110;20.622;2023-05-08T02:42:23;11.35;;;7.40;;
58659;SDS011;44429;45.110;20.622;2023-05-08T02:44:49;14.52;;;7.35;;
58659;SDS011;44429;45.110;20.622;2023-05-08T02:50:03;10.70;;;7.47;;
58659;SDS011;44429;45.110;20.622;2023-05-08T02:52:28;14.15;;;8.25;;
58659;SDS011;44429;45.110;20.622;2023-05-08T02:55:11;10.38;;;7.18;;
58659;SDS011;44429;45.110;20.622;2023-05-08T03:00:19;11.73;;;8.20;;
58659;SDS011;44429;45.110;20.622;2023-05-08T03:02:48;13.82;;;8.00;;
58659;SDS011;44429;45.110;20.622;2023-05-08T03:05:19;13.10;;;7.95;;
58659;SDS011;44429;45.110;20.622;2023-05-08T03:07:49;12.32;;;8.18;;
58659;SDS011;44429;45.110;20.622;2023-05-08T03:10:16;13.65;;;8.60;;
58659;SDS011;44429;45.110;20.622;2023-05-08T03:12:44;12.05;;;7.72;;
58659;SDS011;44429;45.110;20.622;2023-05-08T03:15:18;14.30;;;8.88;;
58659;SDS011;44429;45.110;20.622;2023-05-08T03:17:47;16.08;;;9.20;;
58659;SDS011;44429;45.110;20.622;2023-05-08T03:20:16;12.70;;;9.05;;
58659;SDS011;44429;45.110;20.622;2023-05-08T03:22:44;15.02;;;8.77;;
58659;SDS011;44429;45.110;20.622;2023-05-08T03:25:12;14.75;;;8.25;;
58659;SDS011;44429;45.110;20.622;2023-05-08T03:27:41;15.02;;;9.05;;
58659;SDS011;44429;45.110;20.622;2023-05-08T03:30:08;13.07;;;8.30;;
58659;SDS011;44429;45.110;20.622;2023-05-08T03:32:36;14.82;;;9.02;;
58659;SDS011;44429;45.110;20.622;2023-05-08T03:35:03;13.05;;;8.90;;
58659;SDS011;44429;45.110;20.622;2023-05-08T03:37:30;14.75;;;8.65;;
58659;SDS011;44429;45.110;20.622;2023-05-08T03:39:56;16.45;;;11.07;;
58659;SDS011;44429;45.110;20.622;2023-05-08T03:42:22;19.25;;;14.90;;
58659;SDS011;44429;45.110;20.622;2023-05-08T03:44:50;13.40;;;9.60;;
58659;SDS011;44429;45.110;20.622;2023-05-08T03:47:16;20.15;;;9.10;;
58659;SDS011;44429;45.110;20.622;2023-05-08T03:49:46;12.40;;;9.02;;
58659;SDS011;44429;45.110;20.622;2023-05-08T03:52:13;14.63;;;9.27;;
58659;SDS011;44429;45.110;20.622;2023-05-08T03:54:39;14.40;;;8.35;;
58659;SDS011;44429;45.110;20.622;2023-05-08T03:57:05;13.57;;;9.07;;
58659;SDS011;44429;45.110;20.622;2023-05-08T03:59:35;13.63;;;8.38;;
58659;SDS011;44429;45.110;20.622;2023-05-08T04:04:37;15.35;;;10.48;;
58659;SDS011;44429;45.110;20.622;2023-05-08T04:09:38;13.75;;;8.25;;
58659;SDS011;44429;45.110;20.622;2023-05-08T04:12:17;14.15;;;8.45;;
58659;SDS011;44429;45.110;20.622;2023-05-08T04:14:47;22.73;;;8.70;;
58659;SDS011;44429;45.110;20.622;2023-05-08T04:17:14;13.10;;;8.35;;
58659;SDS011;44429;45.110;20.622;2023-05-08T04:19:44;16.65;;;8.30;;
58659;SDS011;44429;45.110;20.622;2023-05-08T04:22:11;13.95;;;8.88;;
58659;SDS011;44429;45.110;20.622;2023-05-08T04:24:42;15.63;;;8.40;;
58659;SDS011;44429;45.110;20.622;2023-05-08T04:27:08;15.05;;;9.45;;
58659;SDS011;44429;45.110;20.622;2023-05-08T04:29:34;14.82;;;8.88;;
58659;SDS011;44429;45.110;20.622;2023-05-08T04:32:02;15.00;;;8.98;;
58659;SDS011;44429;45.110;20.622;2023-05-08T04:34:30;13.40;;;8.13;;
58659;SDS011;44429;45.110;20.622;2023-05-08T04:36:56;15.15;;;8.85;;
58659;SDS011;44429;45.110;20.622;2023-05-08T04:39:22;16.13;;;8.82;;
58659;SDS011;44429;45.110;20.622;2023-05-08T04:41:48;15.13;;;9.15;;
58659;SDS011;44429;45.110;20.622;2023-05-08T04:44:16;14.35;;;8.20;;
58659;SDS011;44429;45.110;20.622;2023-05-08T04:46:42;15.13;;;9.18;;
58659;SDS011;44429;45.110;20.622;2023-05-08T04:49:08;16.77;;;8.98;;
58659;SDS011;44429;45.110;20.622;2023-05-08T04:51:34;13.98;;;8.98;;
58659;SDS011;44429;45.110;20.622;2023-05-08T04:54:00;16.63;;;10.23;;
58659;SDS011;44429;45.110;20.622;2023-05-08T04:56:26;19.40;;;10.63;;
58659;SDS011;44429;45.110;20.622;2023-05-08T04:58:52;19.42;;;11.93;;
58659;SDS011;44429;45.110;20.622;2023-05-08T05:01:19;16.27;;;11.38;;
58659;SDS011;44429;45.110;20.622;2023-05-08T05:03:45;16.05;;;10.55;;
58659;SDS011;44429;45.110;20.622;2023-05-08T05:06:11;16.13;;;10.20;;
58659;SDS011;44429;45.110;20.622;2023-05-08T05:08:37;18.90;;;10.82;;
58659;SDS011;44429;45.110;20.622;2023-05-08T05:11:03;15.90;;;11.23;;
58659;SDS011;44429;45.110;20.622;2023-05-08T05:13:29;17.63;;;11.98;;
58659;SDS011;44429;45.110;20.622;2023-05-08T05:15:57;15.32;;;10.43;;
58659;SDS011;44429;45.110;20.622;2023-05-08T05:18:23;14.02;;;9.85;;
58659;SDS011;44429;45.110;20.622;2023-05-08T05:20:49;16.25;;;11.23;;
58659;SDS011;44429;45.110;20.622;2023-05-08T05:23:16;16.02;;;11.50;;
58659;SDS011;44429;45.110;20.622;2023-05-08T05:25:42;14.68;;;10.45;;
58659;SDS011;44429;45.110;20.622;2023-05-08T05:28:08;16.02;;;10.85;;
58659;SDS011;44429;45.110;20.622;2023-05-08T05:30:34;15.40;;;10.77;;
58659;SDS011;44429;45.110;20.622;2023-05-08T05:33:01;14.82;;;9.95;;
58659;SDS011;44429;45.110;20.622;2023-05-08T05:35:27;14.60;;;10.52;;
58659;SDS011;44429;45.110;20.622;2023-05-08T05:37:53;14.88;;;9.65;;
58659;SDS011;44429;45.110;20.622;2023-05-08T05:40:20;15.15;;;10.75;;
58659;SDS011;44429;45.110;20.622;2023-05-08T05:42:50;14.30;;;9.80;;
58659;SDS011;44429;45.110;20.622;2023-05-08T05:45:16;16.10;;;10.32;;
58659;SDS011;44429;45.110;20.622;2023-05-08T05:47:45;19.20;;;11.93;;
58659;SDS011;44429;45.110;20.622;2023-05-08T05:50:14;22.25;;;15.38;;
58659;SDS011;44429;45.110;20.622;2023-05-08T05:52:40;22.05;;;13.98;;
58659;SDS011;44429;45.110;20.622;2023-05-08T05:55:06;16.88;;;11.00;;
58659;SDS011;44429;45.110;20.622;2023-05-08T05:57:32;13.55;;;8.55;;
58659;SDS011;44429;45.110;20.622;2023-05-08T05:59:59;13.68;;;9.35;;
58659;SDS011;44429;45.110;20.622;2023-05-08T06:02:25;13.35;;;8.10;;
58659;SDS011;44429;45.110;20.622;2023-05-08T06:04:51;13.48;;;8.48;;
58659;SDS011;44429;45.110;20.622;2023-05-08T06:07:17;14.27;;;7.45;;
58659;SDS011;44429;45.110;20.622;2023-05-08T06:09:45;12.23;;;7.45;;
58659;SDS011;44429;45.110;20.622;2023-05-08T06:12:11;11.85;;;7.22;;
58659;SDS011;44429;45.110;20.622;2023-05-08T06:14:37;12.43;;;6.65;;
58659;SDS011;44429;45.110;20.622;2023-05-08T06:17:03;17.40;;;6.90;;
58659;SDS011;44429;45.110;20.622;2023-05-08T06:19:29;10.45;;;6.82;;
58659;SDS011;44429;45.110;20.622;2023-05-08T06:21:55;10.65;;;6.20;;
58659;SDS011;44429;45.110;20.622;2023-05-08T06:24:22;10.85;;;6.53;;
58659;SDS011;44429;45.110;20.622;2023-05-08T06:26:48;10.70;;;5.35;;
58659;SDS011;44429;45.110;20.622;2023-05-08T06:29:14;10.25;;;6.30;;
58659;SDS011;44429;45.110;20.622;2023-05-08T06:31:40;11.13;;;6.68;;
58659;SDS011;44429;45.110;20.622;2023-05-08T06:34:06;10.95;;;6.30;;
58659;SDS011;44429;45.110;20.622;2023-05-08T06:36:33;12.55;;;6.50;;
58659;SDS011;44429;45.110;20.622;2023-05-08T06:39:00;10.85;;;6.68;;
58659;SDS011;44429;45.110;20.622;2023-05-08T06:41:27;11.00;;;6.28;;
58659;SDS011;44429;45.110;20.622;2023-05-08T06:43:53;11.45;;;6.22;;
58659;SDS011;44429;45.110;20.622;2023-05-08T06:46:19;12.57;;;7.10;;
58659;SDS011;44429;45.110;20.622;2023-05-08T06:48:45;11.25;;;6.70;;
58659;SDS011;44429;45.110;20.622;2023-05-08T06:51:11;10.38;;;6.20;;
58659;SDS011;44429;45.110;20.622;2023-05-08T06:53:37;12.23;;;6.78;;
58659;SDS011;44429;45.110;20.622;2023-05-08T06:56:04;9.77;;;5.97;;
58659;SDS011;44429;45.110;20.622;2023-05-08T06:58:30;10.00;;;5.85;;
58659;SDS011;44429;45.110;20.622;2023-05-08T07:00:59;11.55;;;5.88;;
58659;SDS011;44429;45.110;20.622;2023-05-08T07:03:26;11.35;;;5.75;;
58659;SDS011;44429;45.110;20.622;2023-05-08T07:05:52;11.80;;;6.18;;
58659;SDS011;44429;45.110;20.622;2023-05-08T07:08:18;9.13;;;5.07;;
58659;SDS011;44429;45.110;20.622;2023-05-08T07:10:44;10.05;;;5.10;;
58659;SDS011;44429;45.110;20.622;2023-05-08T07:13:10;9.38;;;5.57;;
58659;SDS011;44429;45.110;20.622;2023-05-08T07:15:36;10.98;;;5.68;;
58659;SDS011;44429;45.110;20.622;2023-05-08T07:18:05;9.77;;;5.80;;
58659;SDS011;44429;45.110;20.622;2023-05-08T07:20:31;9.98;;;5.95;;
58659;SDS011;44429;45.110;20.622;2023-05-08T07:22:57;9.18;;;4.95;;
58659;SDS011;44429;45.110;20.622;2023-05-08T07:25:24;9.25;;;5.43;;
58659;SDS011;44429;45.110;20.622;2023-05-08T07:27:50;9.07;;;5.18;;
58659;SDS011;44429;45.110;20.622;2023-05-08T07:30:16;10.20;;;5.22;;
58659;SDS011;44429;45.110;20.622;2023-05-08T07:32:42;8.70;;;4.97;;
58659;SDS011;44429;45.110;20.622;2023-05-08T07:35:08;8.68;;;4.70;;
58659;SDS011;44429;45.110;20.622;2023-05-08T07:37:36;9.82;;;5.70;;
58659;SDS011;44429;45.110;20.622;2023-05-08T07:40:02;9.93;;;5.10;;
58659;SDS011;44429;45.110;20.622;2023-05-08T07:42:28;10.05;;;5.57;;
58659;SDS011;44429;45.110;20.622;2023-05-08T07:44:55;10.85;;;5.80;;
58659;SDS011;44429;45.110;20.622;2023-05-08T07:47:21;17.58;;;9.35;;
58659;SDS011;44429;45.110;20.622;2023-05-08T07:49:47;19.73;;;10.00;;
58659;SDS011;44429;45.110;20.622;2023-05-08T07:52:13;23.80;;;11.43;;
58659;SDS011;44429;45.110;20.622;2023-05-08T07:54:39;18.58;;;8.40;;
58659;SDS011;44429;45.110;20.622;2023-05-08T07:57:05;8.73;;;4.30;;
58659;SDS011;44429;45.110;20.622;2023-05-08T07:59:31;9.15;;;5.00;;
58659;SDS011;44429;45.110;20.622;2023-05-08T08:01:57;8.07;;;3.90;;
58659;SDS011;44429;45.110;20.622;2023-05-08T08:04:24;8.00;;;4.13;;
58659;SDS011;44429;45.110;20.622;2023-05-08T08:06:50;11.75;;;4.78;;
58659;SDS011;44429;45.110;20.622;2023-05-08T08:09:16;16.92;;;7.68;;
58659;SDS011;44429;45.110;20.622;2023-05-08T08:11:42;15.85;;;8.82;;
58659;SDS011;44429;45.110;20.622;2023-05-08T08:14:08;13.25;;;7.53;;
58659;SDS011;44429;45.110;20.622;2023-05-08T08:16:34;12.07;;;6.63;;
58659;SDS011;44429;45.110;20.622;2023-05-08T08:19:00;10.07;;;4.63;;
58659;SDS011;44429;45.110;20.622;2023-05-08T08:21:27;7.95;;;4.65;;
58659;SDS011;44429;45.110;20.622;2023-05-08T08:23:53;10.63;;;5.22;;
58659;SDS011;44429;45.110;20.622;2023-05-08T08:26:19;8.73;;;4.45;;
58659;SDS011;44429;45.110;20.622;2023-05-08T08:28:45;9.40;;;5.60;;
58659;SDS011;44429;45.110;20.622;2023-05-08T08:31:11;10.18;;;4.97;;
58659;SDS011;44429;45.110;20.622;2023-05-08T08:33:37;9.57;;;5.55;;
58659;SDS011;44429;45.110;20.622;2023-05-08T08:36:04;7.97;;;4.40;;
58659;SDS011;44429;45.110;20.622;2023-05-08T08:38:30;8.82;;;4.97;;
58659;SDS011;44429;45.110;20.622;2023-05-08T08:40:56;11.43;;;4.80;;
58659;SDS011;44429;45.110;20.622;2023-05-08T08:43:22;9.77;;;4.55;;
58659;SDS011;44429;45.110;20.622;2023-05-08T08:45:48;8.43;;;4.22;;
58659;SDS011;44429;45.110;20.622;2023-05-08T08:48:14;8.68;;;4.53;;
58659;SDS011;44429;45.110;20.622;2023-05-08T08:50:41;7.50;;;4.20;;
58659;SDS011;44429;45.110;20.622;2023-05-08T08:55:42;7.82;;;3.63;;
58659;SDS011;44429;45.110;20.622;2023-05-08T08:58:30;8.82;;;3.70;;
58659;SDS011;44429;45.110;20.622;2023-05-08T09:00:59;8.68;;;4.40;;
58659;SDS011;44429;45.110;20.622;2023-05-08T09:03:27;8.32;;;3.60;;
58659;SDS011;44429;45.110;20.622;2023-05-08T09:05:55;8.85;;;3.80;;
58659;SDS011;44429;45.110;20.622;2023-05-08T09:08:24;7.32;;;3.80;;
58659;SDS011;44429;45.110;20.622;2023-05-08T09:10:51;7.93;;;3.80;;
58659;SDS011;44429;45.110;20.622;2023-05-08T09:13:20;20.60;;;4.45;;
58659;SDS011;44429;45.110;20.622;2023-05-08T09:15:46;11.77;;;4.57;;
58659;SDS011;44429;45.110;20.622;2023-05-08T09:18:16;11.18;;;3.92;;
58659;SDS011;44429;45.110;20.622;2023-05-08T09:20:43;12.93;;;4.18;;
58659;SDS011;44429;45.110;20.622;2023-05-08T09:23:09;11.50;;;3.97;;
58659;SDS011;44429;45.110;20.622;2023-05-08T09:25:46;9.68;;;4.10;;
58659;SDS011;44429;45.110;20.622;2023-05-08T09:28:19;10.55;;;4.03;;
58659;SDS011;44429;45.110;20.622;2023-05-08T09:33:15;8.30;;;3.60;;
58659;SDS011;44429;45.110;20.622;2023-05-08T09:35:41;7.45;;;3.80;;
58659;SDS011;44429;45.110;20.622;2023-05-08T09:38:08;7.80;;;3.75;;
58659;SDS011;44429;45.110;20.622;2023-05-08T09:40:34;8.90;;;3.67;;
58659;SDS011;44429;45.110;20.622;2023-05-08T09:43:10;7.00;;;3.58;;
58659;SDS011;44429;45.110;20.622;2023-05-08T09:45:39;9.35;;;4.32;;
58659;SDS011;44429;45.110;20.622;2023-05-08T09:48:06;6.88;;;3.55;;
58659;SDS011;44429;45.110;20.622;2023-05-08T09:50:33;9.82;;;4.28;;
58659;SDS011;44429;45.110;20.622;2023-05-08T09:52:59;8.77;;;4.10;;
58659;SDS011;44429;45.110;20.622;2023-05-08T09:55:26;8.50;;;4.03;;
58659;SDS011;44429;45.110;20.622;2023-05-08T10:00:18;7.93;;;3.80;;
58659;SDS011;44429;45.110;20.622;2023-05-08T10:07:51;9.52;;;4.15;;
58659;SDS011;44429;45.110;20.622;2023-05-08T10:10:30;7.63;;;4.15;;
58659;SDS011;44429;45.110;20.622;2023-05-08T10:12:56;8.95;;;4.50;;
58659;SDS011;44429;45.110;20.622;2023-05-08T10:15:24;9.43;;;4.70;;
58659;SDS011;44429;45.110;20.622;2023-05-08T10:17:56;9.60;;;5.28;;
58659;SDS011;44429;45.110;20.622;2023-05-08T10:20:23;10.13;;;5.55;;
58659;SDS011;44429;45.110;20.622;2023-05-08T10:22:50;10.95;;;5.35;;
58659;SDS011;44429;45.110;20.622;2023-05-08T10:25:18;8.68;;;5.45;;
58659;SDS011;44429;45.110;20.622;2023-05-08T10:27:51;9.77;;;5.82;;
58659;SDS011;44429;45.110;20.622;2023-05-08T10:30:22;8.30;;;5.15;;
58659;SDS011;44429;45.110;20.622;2023-05-08T10:32:50;8.50;;;5.50;;
58659;SDS011;44429;45.110;20.622;2023-05-08T10:35:19;9.50;;;5.97;;
58659;SDS011;44429;45.110;20.622;2023-05-08T10:37:45;12.65;;;7.00;;
58659;SDS011;44429;45.110;20.622;2023-05-08T10:40:12;11.40;;;5.28;;
58659;SDS011;44429;45.110;20.622;2023-05-08T10:42:40;10.68;;;5.60;;
58659;SDS011;44429;45.110;20.622;2023-05-08T10:45:06;9.10;;;5.07;;
58659;SDS011;44429;45.110;20.622;2023-05-08T10:50:23;9.02;;;5.35;;
58659;SDS011;44429;45.110;20.622;2023-05-08T10:55:31;10.02;;;5.70;;
58659;SDS011;44429;45.110;20.622;2023-05-08T10:58:40;9.35;;;5.50;;
58659;SDS011;44429;45.110;20.622;2023-05-08T11:03:26;9.43;;;5.03;;
58659;SDS011;44429;45.110;20.622;2023-05-08T11:05:52;9.88;;;6.07;;
58659;SDS011;44429;45.110;20.622;2023-05-08T11:16:01;8.88;;;5.55;;
58659;SDS011;44429;45.110;20.622;2023-05-08T11:18:28;11.05;;;5.82;;
58659;SDS011;44429;45.110;20.622;2023-05-08T11:20:55;8.27;;;5.53;;
58659;SDS011;44429;45.110;20.622;2023-05-08T11:23:22;8.65;;;5.00;;
58659;SDS011;44429;45.110;20.622;2023-05-08T11:25:57;9.95;;;5.40;;
58659;SDS011;44429;45.110;20.622;2023-05-08T11:28:24;10.13;;;5.47;;
58659;SDS011;44429;45.110;20.622;2023-05-08T11:30:53;8.48;;;4.60;;
58659;SDS011;44429;45.110;20.622;2023-05-08T11:38:22;9.32;;;4.70;;
58659;SDS011;44429;45.110;20.622;2023-05-08T11:46:13;8.98;;;5.20;;
58659;SDS011;44429;45.110;20.622;2023-05-08T11:48:40;9.35;;;4.90;;
58659;SDS011;44429;45.110;20.622;2023-05-08T11:51:06;9.70;;;5.28;;
58659;SDS011;44429;45.110;20.622;2023-05-08T11:53:33;9.18;;;5.07;;
58659;SDS011;44429;45.110;20.622;2023-05-08T11:56:00;10.00;;;5.55;;
58659;SDS011;44429;45.110;20.622;2023-05-08T11:58:27;7.80;;;4.70;;
58659;SDS011;44429;45.110;20.622;2023-05-08T12:00:54;9.18;;;5.03;;
58659;SDS011;44429;45.110;20.622;2023-05-08T12:03:21;8.15;;;4.50;;
58659;SDS011;44429;45.110;20.622;2023-05-08T12:05:49;10.65;;;4.63;;
58659;SDS011;44429;45.110;20.622;2023-05-08T12:08:15;7.90;;;4.60;;
58659;SDS011;44429;45.110;20.622;2023-05-08T12:13:24;7.53;;;4.30;;
58659;SDS011;44429;45.110;20.622;2023-05-08T12:15:52;9.55;;;4.00;;
58659;SDS011;44429;45.110;20.622;2023-05-08T12:18:19;8.73;;;4.70;;
58659;SDS011;44429;45.110;20.622;2023-05-08T12:20:45;7.00;;;3.90;;
58659;SDS011;44429;45.110;20.622;2023-05-08T12:23:15;7.38;;;4.05;;
58659;SDS011;44429;45.110;20.622;2023-05-08T12:25:42;8.13;;;4.03;;
58659;SDS011;44429;45.110;20.622;2023-05-08T12:28:08;8.88;;;4.20;;
58659;SDS011;44429;45.110;20.622;2023-05-08T12:30:35;9.13;;;4.38;;
58659;SDS011;44429;45.110;20.622;2023-05-08T12:33:01;9.70;;;3.90;;
58659;SDS011;44429;45.110;20.622;2023-05-08T12:35:28;7.15;;;3.72;;
58659;SDS011;44429;45.110;20.622;2023-05-08T12:37:59;9.27;;;4.07;;
58659;SDS011;44429;45.110;20.622;2023-05-08T12:40:27;7.28;;;3.72;;
58659;SDS011;44429;45.110;20.622;2023-05-08T12:42:53;8.00;;;4.20;;
58659;SDS011;44429;45.110;20.622;2023-05-08T12:45:24;11.38;;;4.05;;
58659;SDS011;44429;45.110;20.622;2023-05-08T12:47:52;12.00;;;4.10;;
58659;SDS011;44429;45.110;20.622;2023-05-08T12:50:19;6.95;;;3.60;;
58659;SDS011;44429;45.110;20.622;2023-05-08T12:52:46;10.35;;;3.60;;
58659;SDS011;44429;45.110;20.622;2023-05-08T12:55:19;7.15;;;3.35;;
58659;SDS011;44429;45.110;20.622;2023-05-08T12:57:45;8.05;;;3.60;;
58659;SDS011;44429;45.110;20.622;2023-05-08T13:00:13;10.48;;;3.80;;
58659;SDS011;44429;45.110;20.622;2023-05-08T13:02:39;7.72;;;3.60;;
58659;SDS011;44429;45.110;20.622;2023-05-08T13:05:22;7.78;;;3.17;;
58659;SDS011;44429;45.110;20.622;2023-05-08T13:10:15;9.30;;;3.38;;
58659;SDS011;44429;45.110;20.622;2023-05-08T13:12:43;7.95;;;3.15;;
58659;SDS011;44429;45.110;20.622;2023-05-08T13:15:09;8.32;;;2.80;;
58659;SDS011;44429;45.110;20.622;2023-05-08T13:17:35;7.63;;;3.25;;
58659;SDS011;44429;45.110;20.622;2023-05-08T13:20:02;7.07;;;3.00;;
58659;SDS011;44429;45.110;20.622;2023-05-08T13:22:28;7.07;;;3.28;;
58659;SDS011;44429;45.110;20.622;2023-05-08T13:24:54;7.45;;;2.90;;
58659;SDS011;44429;45.110;20.622;2023-05-08T13:27:21;7.90;;;2.58;;
58659;SDS011;44429;45.110;20.622;2023-05-08T13:29:47;6.28;;;2.80;;
58659;SDS011;44429;45.110;20.622;2023-05-08T13:32:13;6.88;;;3.15;;
58659;SDS011;44429;45.110;20.622;2023-05-08T13:34:39;6.38;;;2.83;;
58659;SDS011;44429;45.110;20.622;2023-05-08T13:37:05;6.50;;;2.45;;
58659;SDS011;44429;45.110;20.622;2023-05-08T13:39:31;7.05;;;2.83;;
58659;SDS011;44429;45.110;20.622;2023-05-08T13:42:01;7.45;;;2.63;;
58659;SDS011;44429;45.110;20.622;2023-05-08T13:44:27;8.65;;;3.08;;
58659;SDS011;44429;45.110;20.622;2023-05-08T13:46:54;8.23;;;2.67;;
58659;SDS011;44429;45.110;20.622;2023-05-08T13:49:20;9.55;;;2.30;;
58659;SDS011;44429;45.110;20.622;2023-05-08T13:51:48;9.10;;;2.25;;
58659;SDS011;44429;45.110;20.622;2023-05-08T13:54:15;6.03;;;2.28;;
58659;SDS011;44429;45.110;20.622;2023-05-08T13:56:41;6.38;;;2.17;;
58659;SDS011;44429;45.110;20.622;2023-05-08T13:59:07;6.68;;;2.33;;
58659;SDS011;44429;45.110;20.622;2023-05-08T14:01:33;9.13;;;3.05;;
58659;SDS011;44429;45.110;20.622;2023-05-08T14:03:59;8.15;;;2.88;;
58659;SDS011;44429;45.110;20.622;2023-05-08T14:06:25;6.72;;;2.40;;
58659;SDS011;44429;45.110;20.622;2023-05-08T14:08:51;7.00;;;2.15;;
58659;SDS011;44429;45.110;20.622;2023-05-08T14:11:17;5.90;;;2.33;;
58659;SDS011;44429;45.110;20.622;2023-05-08T14:13:44;8.65;;;2.40;;
58659;SDS011;44429;45.110;20.622;2023-05-08T14:16:10;6.90;;;2.45;;
58659;SDS011;44429;45.110;20.622;2023-05-08T14:18:38;7.72;;;2.50;;
58659;SDS011;44429;45.110;20.622;2023-05-08T14:21:04;8.55;;;2.40;;
58659;SDS011;44429;45.110;20.622;2023-05-08T14:23:30;7.15;;;2.22;;
58659;SDS011;44429;45.110;20.622;2023-05-08T14:25:56;8.27;;;2.50;;
58659;SDS011;44429;45.110;20.622;2023-05-08T14:28:22;6.38;;;2.53;;
58659;SDS011;44429;45.110;20.622;2023-05-08T14:30:48;6.20;;;2.30;;
58659;SDS011;44429;45.110;20.622;2023-05-08T14:33:14;6.60;;;2.22;;
58659;SDS011;44429;45.110;20.622;2023-05-08T14:35:40;7.97;;;2.33;;
58659;SDS011;44429;45.110;20.622;2023-05-08T14:38:07;6.85;;;2.15;;
58659;SDS011;44429;45.110;20.622;2023-05-08T14:40:37;6.38;;;2.35;;
58659;SDS011;44429;45.110;20.622;2023-05-08T14:43:03;8.80;;;2.20;;
58659;SDS011;44429;45.110;20.622;2023-05-08T14:45:29;5.88;;;1.60;;
58659;SDS011;44429;45.110;20.622;2023-05-08T14:47:55;6.82;;;1.80;;
58659;SDS011;44429;45.110;20.622;2023-05-08T14:50:21;6.03;;;1.90;;
58659;SDS011;44429;45.110;20.622;2023-05-08T14:52:48;6.82;;;1.98;;
58659;SDS011;44429;45.110;20.622;2023-05-08T14:55:15;4.90;;;1.73;;
58659;SDS011;44429;45.110;20.622;2023-05-08T14:57:45;6.65;;;1.50;;
58659;SDS011;44429;45.110;20.622;2023-05-08T15:00:12;5.88;;;1.75;;
58659;SDS011;44429;45.110;20.622;2023-05-08T15:02:38;5.45;;;2.10;;
58659;SDS011;44429;45.110;20.622;2023-05-08T15:05:05;5.30;;;1.60;;
58659;SDS011;44429;45.110;20.622;2023-05-08T15:07:31;5.28;;;1.40;;
58659;SDS011;44429;45.110;20.622;2023-05-08T15:09:57;5.97;;;1.77;;
58659;SDS011;44429;45.110;20.622;2023-05-08T15:12:23;5.40;;;1.50;;
58659;SDS011;44429;45.110;20.622;2023-05-08T15:14:49;6.28;;;1.60;;
58659;SDS011;44429;45.110;20.622;2023-05-08T15:17:15;5.57;;;1.70;;
58659;SDS011;44429;45.110;20.622;2023-05-08T15:19:41;7.07;;;1.80;;
58659;SDS011;44429;45.110;20.622;2023-05-08T15:22:09;6.00;;;1.65;;
58659;SDS011;44429;45.110;20.622;2023-05-08T15:24:35;6.10;;;1.40;;
58659;SDS011;44429;45.110;20.622;2023-05-08T15:27:02;6.90;;;1.30;;
58659;SDS011;44429;45.110;20.622;2023-05-08T15:29:28;7.22;;;1.38;;
58659;SDS011;44429;45.110;20.622;2023-05-08T15:31:54;8.52;;;1.30;;
58659;SDS011;44429;45.110;20.622;2023-05-08T15:34:20;5.10;;;1.13;;
58659;SDS011;44429;45.110;20.622;2023-05-08T15:36:46;5.57;;;1.05;;